createdAt,value
2023-11-15T00:00:53.746Z,9
2023-11-15T00:01:55.443Z,9
2023-11-15T00:02:56.555Z,9
2023-11-15T00:03:58.460Z,9
2023-11-15T00:05:00.634Z,9
2023-11-15T00:06:01.563Z,9
2023-11-15T00:07:04.544Z,9.1
2023-11-15T00:08:08.453Z,9.1
2023-11-15T00:09:11.436Z,9
2023-11-15T00:10:15.150Z,9
2023-11-15T00:11:16.554Z,9
2023-11-15T00:12:18.519Z,9
2023-11-15T00:13:23.409Z,9
2023-11-15T00:14:25.509Z,8.9
2023-11-15T00:15:32.010Z,8.9
2023-11-15T00:16:33.493Z,8.9
2023-11-15T00:17:37.119Z,8.9
2023-11-15T00:18:39.449Z,8.9
2023-11-15T00:19:44.223Z,8.9
2023-11-15T00:20:45.468Z,8.9
2023-11-15T00:21:48.627Z,8.9
2023-11-15T00:22:50.502Z,8.9
2023-11-15T00:23:51.632Z,8.9
2023-11-15T00:24:55.787Z,8.9
2023-11-15T00:25:56.475Z,8.9
2023-11-15T00:26:57.487Z,8.8
2023-11-15T00:27:58.456Z,8.8
2023-11-15T00:28:59.458Z,8.7
2023-11-15T00:30:00.688Z,8.6
2023-11-15T00:31:03.448Z,8.5
2023-11-15T00:32:04.458Z,8.4
2023-11-15T00:33:08.364Z,8.4
2023-11-15T00:34:10.501Z,8.4
2023-11-15T00:35:15.419Z,8.4
2023-11-15T00:36:16.522Z,8.4
2023-11-15T00:37:20.625Z,8.4
2023-11-15T00:38:22.776Z,8.5
2023-11-15T00:39:25.883Z,8.6
2023-11-15T00:40:30.187Z,8.6
2023-11-15T00:41:31.525Z,8.7
2023-11-15T00:42:33.825Z,8.7
2023-11-15T00:43:34.492Z,8.8
2023-11-15T00:44:35.472Z,8.8
2023-11-15T00:45:41.686Z,8.9
2023-11-15T00:46:45.727Z,8.8
2023-11-15T00:47:47.486Z,8.8
2023-11-15T00:48:48.453Z,8.8
2023-11-15T00:49:52.530Z,8.8
2023-11-15T00:50:53.494Z,8.9
2023-11-15T00:51:55.550Z,8.9
2023-11-15T00:52:56.879Z,8.9
2023-11-15T00:53:58.480Z,8.9
2023-11-15T00:54:59.480Z,8.9
2023-11-15T00:56:02.826Z,9
2023-11-15T00:57:09.876Z,9
2023-11-15T00:58:13.484Z,9.1
2023-11-15T00:59:15.469Z,9.2
2023-11-15T01:00:20.602Z,9.2
2023-11-15T01:01:22.305Z,9.2
2023-11-15T01:02:26.408Z,9.1
2023-11-15T01:03:27.704Z,9.2
2023-11-15T01:04:34.104Z,9.2
2023-11-15T01:05:35.470Z,9.1
2023-11-15T01:06:36.470Z,9.1
2023-11-15T01:07:37.463Z,9
2023-11-15T01:08:38.704Z,9
2023-11-15T01:09:39.494Z,8.9
2023-11-15T01:10:40.531Z,8.9
2023-11-15T01:11:41.476Z,8.8
2023-11-15T01:12:46.098Z,8.8
2023-11-15T01:13:48.909Z,8.8
2023-11-15T01:14:50.599Z,8.7
2023-11-15T01:15:51.729Z,8.5
2023-11-15T01:16:53.491Z,8.4
2023-11-15T01:17:54.623Z,8.4
2023-11-15T01:18:55.478Z,8.4
2023-11-15T01:19:56.626Z,8.4
2023-11-15T01:20:58.557Z,8.4
2023-11-15T01:21:59.744Z,8.3
2023-11-15T01:23:00.793Z,8.3
2023-11-15T01:24:01.493Z,8.4
2023-11-15T01:25:05.810Z,8.3
2023-11-15T01:26:08.722Z,8.3
2023-11-15T01:27:10.464Z,8.3
2023-11-15T01:28:14.032Z,8.3
2023-11-15T01:29:16.546Z,8.3
2023-11-15T01:30:18.501Z,8.3
2023-11-15T01:31:23.126Z,8.2
2023-11-15T01:32:24.608Z,8.3
2023-11-15T01:33:31.726Z,8.3
2023-11-15T01:34:34.518Z,8.3
2023-11-15T01:35:36.656Z,8.3
2023-11-15T01:36:37.499Z,8.3
2023-11-15T01:37:39.553Z,8.4
2023-11-15T01:38:42.606Z,8.4
2023-11-15T01:39:47.263Z,8.5
2023-11-15T01:40:50.601Z,8.5
2023-11-15T01:41:51.661Z,8.6
2023-11-15T01:42:52.490Z,8.7
2023-11-15T01:43:53.634Z,8.8
2023-11-15T01:44:56.681Z,8.8
2023-11-15T01:46:00.436Z,8.8
2023-11-15T01:47:03.634Z,8.9
2023-11-15T01:48:05.626Z,8.9
2023-11-15T01:49:07.480Z,9
2023-11-15T01:50:08.814Z,9
2023-11-15T01:51:10.861Z,9
2023-11-15T01:52:11.528Z,9.1
2023-11-15T01:53:16.275Z,9.1
2023-11-15T01:54:17.500Z,9.2
2023-11-15T01:55:22.483Z,9.1
2023-11-15T01:56:26.743Z,9.2
2023-11-15T01:57:38.162Z,9.2
2023-11-15T01:58:41.487Z,9.2
2023-11-15T01:59:43.521Z,9.3
2023-11-15T02:00:48.083Z,9.3
2023-11-15T02:01:52.643Z,9.2
2023-11-15T02:02:54.879Z,9.3
2023-11-15T02:04:58.497Z,9.2
2023-11-15T02:05:59.507Z,9.2
2023-11-15T02:07:10.582Z,9.2
2023-11-15T02:08:15.714Z,9.1
2023-11-15T02:09:17.761Z,9
2023-11-15T02:10:18.558Z,9
2023-11-15T02:11:19.534Z,9.1
2023-11-15T02:12:27.096Z,9.1
2023-11-15T02:13:30.703Z,9
2023-11-15T02:14:32.779Z,8.9
2023-11-15T02:15:34.569Z,8.7
2023-11-15T02:16:36.867Z,8.8
2023-11-15T02:17:39.653Z,8.8
2023-11-15T02:18:42.841Z,8.8
2023-11-15T02:19:44.610Z,8.8
2023-11-15T02:20:46.212Z,8.8
2023-11-15T02:21:50.047Z,8.8
2023-11-15T02:22:56.319Z,8.7
2023-11-15T02:23:57.512Z,8.7
2023-11-15T02:25:02.544Z,8.5
2023-11-15T02:26:04.554Z,8.4
2023-11-15T02:27:13.316Z,8.3
2023-11-15T02:28:18.102Z,8.3
2023-11-15T02:29:27.734Z,8.3
2023-11-15T02:30:29.807Z,8.4
2023-11-15T02:31:33.349Z,8.4
2023-11-15T02:32:37.565Z,8.4
2023-11-15T02:36:53.466Z,8.4
2023-11-15T02:37:55.532Z,8.4
2023-11-15T02:38:58.580Z,8.4
2023-11-15T02:40:04.565Z,8.4
2023-11-15T02:41:08.622Z,8.3
2023-11-15T02:42:12.712Z,8.3
2023-11-15T02:43:15.771Z,8.4
2023-11-15T02:44:20.774Z,8.4
2023-11-15T02:45:24.887Z,8.4
2023-11-15T02:46:29.782Z,8.4
2023-11-15T02:47:31.832Z,8.4
2023-11-15T02:48:32.560Z,8.4
2023-11-15T02:49:37.710Z,8.5
2023-11-15T02:50:41.187Z,8.5
2023-11-15T02:51:48.441Z,8.6
2023-11-15T02:52:52.714Z,8.7
2023-11-15T02:53:54.857Z,8.7
2023-11-15T02:55:02.555Z,8.7
2023-11-15T02:56:03.514Z,8.7
2023-11-15T02:57:08.730Z,8.7
2023-11-15T02:58:11.809Z,8.7
2023-11-15T02:59:14.566Z,8.6
2023-11-15T03:00:19.203Z,8.5
2023-11-15T03:01:26.566Z,8.5
2023-11-15T03:02:28.702Z,8.5
2023-11-15T03:03:36.631Z,8.5
2023-11-15T03:04:49.750Z,8.5
2023-11-15T03:05:51.889Z,8.5
2023-11-15T03:06:57.200Z,8.5
2023-11-15T03:07:59.461Z,8.5
2023-11-15T03:09:04.778Z,8.5
2023-11-15T03:10:12.527Z,8.5
2023-11-15T03:11:16.135Z,8.5
2023-11-15T03:12:22.802Z,8.5
2023-11-15T03:13:30.741Z,8.6
2023-11-15T03:14:31.867Z,8.6
2023-11-15T03:15:38.737Z,8.6
2023-11-15T03:16:40.598Z,8.7
2023-11-15T03:17:41.782Z,8.7
2023-11-15T03:18:46.540Z,8.8
2023-11-15T03:19:47.558Z,8.8
2023-11-15T03:20:52.907Z,8.8
2023-11-15T03:21:55.821Z,8.8
2023-11-15T03:23:00.760Z,8.7
2023-11-15T03:24:06.738Z,8.7
2023-11-15T03:25:08.802Z,8.6
2023-11-15T03:26:10.562Z,8.6
2023-11-15T03:27:12.530Z,8.5
2023-11-15T03:28:18.446Z,8.4
2023-11-15T03:29:19.570Z,8.4
2023-11-15T03:30:24.393Z,8.4
2023-11-15T03:31:26.608Z,8.4
2023-11-15T03:32:33.197Z,8.4
2023-11-15T03:33:41.823Z,8.4
2023-11-15T03:34:48.496Z,8.4
2023-11-15T03:35:51.588Z,8.3
2023-11-15T03:36:52.537Z,8.3
2023-11-15T03:37:58.195Z,8.3
2023-11-15T03:39:02.765Z,8.3
2023-11-15T03:40:08.912Z,8.3
2023-11-15T03:41:12.560Z,8.2
2023-11-15T03:42:13.813Z,8.2
2023-11-15T03:43:18.742Z,8
2023-11-15T03:44:20.591Z,8.1
2023-11-15T03:45:24.554Z,8.1
2023-11-15T03:46:30.580Z,8
2023-11-15T03:47:35.804Z,8
2023-11-15T03:48:37.888Z,7.9
2023-11-15T03:49:43.165Z,7.8
2023-11-15T03:50:44.547Z,7.8
2023-11-15T03:51:46.583Z,7.7
2023-11-15T03:52:48.796Z,7.6
2023-11-15T03:53:56.332Z,7.6
2023-11-15T03:55:01.293Z,7.6
2023-11-15T03:56:07.769Z,7.7
2023-11-15T03:57:12.786Z,7.7
2023-11-15T03:58:17.551Z,7.7
2023-11-15T03:59:23.873Z,7.7
2023-11-15T04:00:30.034Z,7.6
2023-11-15T04:01:49.000Z,7.5
2023-11-15T04:02:44.618Z,7.5
2023-11-15T04:03:46.946Z,7.4
2023-11-15T04:04:51.687Z,7.4
2023-11-15T04:06:00.732Z,7.3
2023-11-15T04:07:02.807Z,7.3
2023-11-15T04:08:04.665Z,7.3
2023-11-15T04:09:05.688Z,7.3
2023-11-15T04:10:07.916Z,7.2
2023-11-15T04:11:12.070Z,7.2
2023-11-15T04:12:13.601Z,7.2
2023-11-15T04:13:14.589Z,7.2
2023-11-15T04:14:16.555Z,7.2
2023-11-15T04:15:22.231Z,7.2
2023-11-15T04:16:24.725Z,7.3
2023-11-15T04:17:25.649Z,7.3
2023-11-15T04:18:27.619Z,7.3
2023-11-15T04:19:29.054Z,7.3
2023-11-15T04:20:30.840Z,7.3
2023-11-15T04:21:33.697Z,7.3
2023-11-15T04:22:34.570Z,7.3
2023-11-15T04:23:35.902Z,7.3
2023-11-15T04:24:36.559Z,7.4
2023-11-15T04:25:38.593Z,7.4
2023-11-15T04:26:40.584Z,7.5
2023-11-15T04:27:43.567Z,7.5
2023-11-15T04:28:44.556Z,7.6
2023-11-15T04:29:50.501Z,7.6
2023-11-15T04:30:57.361Z,7.7
2023-11-15T04:31:58.561Z,7.8
2023-11-15T04:33:03.835Z,8
2023-11-15T04:34:11.804Z,8
2023-11-15T04:35:12.869Z,8
2023-11-15T04:36:14.606Z,8.1
2023-11-15T04:37:16.601Z,8.2
2023-11-15T04:38:30.021Z,8.3
2023-11-15T04:39:31.613Z,8.3
2023-11-15T04:40:32.574Z,8.3
2023-11-15T04:41:34.727Z,8.4
2023-11-15T04:42:36.846Z,8.4
2023-11-15T04:43:40.780Z,8.5
2023-11-15T04:44:45.492Z,8.5
2023-11-15T04:45:47.607Z,8.6
2023-11-15T04:46:50.836Z,8.6
2023-11-15T04:47:52.915Z,8.7
2023-11-15T04:48:54.708Z,8.8
2023-11-15T04:49:56.671Z,8.8
2023-11-15T04:50:58.769Z,8.8
2023-11-15T04:52:00.728Z,8.7
2023-11-15T04:53:02.682Z,8.8
2023-11-15T04:54:07.160Z,8.8
2023-11-15T04:55:10.173Z,8.8
2023-11-15T04:56:14.657Z,8.8
2023-11-15T04:57:15.581Z,8.8
2023-11-15T04:58:16.602Z,8.8
2023-11-15T04:59:18.717Z,8.7
2023-11-15T05:00:20.710Z,8.6
2023-11-15T05:01:21.704Z,8.5
2023-11-15T05:02:24.952Z,8.5
2023-11-15T05:03:31.536Z,8.5
2023-11-15T05:04:32.760Z,8.5
2023-11-15T05:05:37.278Z,8.5
2023-11-15T05:06:39.678Z,8.5
2023-11-15T05:07:41.581Z,8.5
2023-11-15T05:08:43.450Z,8.5
2023-11-15T05:09:44.587Z,8.5
2023-11-15T05:10:45.889Z,8.5
2023-11-15T05:11:46.628Z,8.4
2023-11-15T05:12:48.694Z,8.3
2023-11-15T05:13:50.588Z,8.4
2023-11-15T05:14:51.730Z,8.3
2023-11-15T05:15:52.784Z,8.3
2023-11-15T05:17:00.480Z,8.2
2023-11-15T05:18:01.652Z,8.2
2023-11-15T05:19:03.593Z,8.2
2023-11-15T05:20:04.708Z,8.1
2023-11-15T05:21:09.620Z,8
2023-11-15T05:22:12.845Z,8
2023-11-15T05:23:15.904Z,8
2023-11-15T05:24:17.698Z,7.9
2023-11-15T05:25:19.931Z,7.9
2023-11-15T05:26:21.703Z,7.9
2023-11-15T05:27:24.614Z,7.8
2023-11-15T05:28:26.903Z,7.9
2023-11-15T05:29:31.364Z,7.9
2023-11-15T05:30:38.486Z,7.9
2023-11-15T05:31:40.693Z,7.9
2023-11-15T05:32:43.695Z,8
2023-11-15T05:33:44.608Z,8.1
2023-11-15T05:34:45.887Z,8.1
2023-11-15T05:35:47.705Z,8.1
2023-11-15T05:36:49.686Z,8.1
2023-11-15T05:37:54.548Z,8
2023-11-15T05:38:58.273Z,7.9
2023-11-15T05:40:02.383Z,7.8
2023-11-15T05:41:06.606Z,7.8
2023-11-15T05:42:10.741Z,7.8
2023-11-15T05:43:12.604Z,7.8
2023-11-15T05:44:14.866Z,7.7
2023-11-15T05:45:16.612Z,7.7
2023-11-15T05:46:17.689Z,7.6
2023-11-15T05:47:18.601Z,7.6
2023-11-15T05:48:20.774Z,7.7
2023-11-15T05:49:23.640Z,7.7
2023-11-15T05:50:24.636Z,7.7
2023-11-15T05:51:26.719Z,7.6
2023-11-15T05:52:28.625Z,7.6
2023-11-15T05:53:32.051Z,7.5
2023-11-15T05:54:33.704Z,7.5
2023-11-15T05:55:34.612Z,7.6
2023-11-15T05:56:36.661Z,7.6
2023-11-15T05:57:38.652Z,7.6
2023-11-15T05:58:43.387Z,7.6
2023-11-15T05:59:45.992Z,7.6
2023-11-15T06:00:50.401Z,7.7
2023-11-15T06:01:52.772Z,7.9
2023-11-15T06:02:54.772Z,8
2023-11-15T06:03:58.944Z,8.1
2023-11-15T06:05:00.775Z,8.1
2023-11-15T06:06:02.036Z,8
2023-11-15T06:07:06.738Z,8.1
2023-11-15T06:08:09.709Z,8
2023-11-15T06:09:10.650Z,8.1
2023-11-15T06:10:11.630Z,8.1
2023-11-15T06:11:14.093Z,8.2
2023-11-15T06:12:17.212Z,8.3
2023-11-15T06:13:24.451Z,8.3
2023-11-15T06:14:28.243Z,8.2
2023-11-15T06:15:31.648Z,8.2
2023-11-15T06:16:32.684Z,8.2
2023-11-15T06:17:40.091Z,8.2
2023-11-15T06:18:40.965Z,8.1
2023-11-15T06:19:47.531Z,8.2
2023-11-15T06:20:48.945Z,8.1
2023-11-15T06:21:51.727Z,8.2
2023-11-15T06:22:52.718Z,8.1
2023-11-15T06:23:54.009Z,8.2
2023-11-15T06:24:55.812Z,8.2
2023-11-15T06:26:00.547Z,8.2
2023-11-15T06:27:05.385Z,8.2
2023-11-15T06:28:06.785Z,8.3
2023-11-15T06:29:10.001Z,8.4
2023-11-15T06:30:11.752Z,8.3
2023-11-15T06:31:15.636Z,8.3
2023-11-15T06:32:20.896Z,8.4
2023-11-15T06:33:23.008Z,8.4
2023-11-15T06:34:28.549Z,8.4
2023-11-15T06:35:33.318Z,8.5
2023-11-15T06:36:39.898Z,8.6
2023-11-15T06:37:40.900Z,8.6
2023-11-15T06:38:46.880Z,8.6
2023-11-15T06:39:56.497Z,8.7
2023-11-15T06:41:01.774Z,8.6
2023-11-15T06:42:05.426Z,8.6
2023-11-15T06:43:15.353Z,8.6
2023-11-15T06:44:22.275Z,8.6
2023-11-15T06:45:24.702Z,8.6
2023-11-15T06:46:27.145Z,8.5
2023-11-15T06:47:32.781Z,8.5
2023-11-15T06:48:36.087Z,8.4
2023-11-15T06:49:40.646Z,8.4
2023-11-15T06:50:46.648Z,8.4
2023-11-15T06:52:03.347Z,8.2
2023-11-15T06:53:09.769Z,8.2
2023-11-15T06:54:11.697Z,8.2
2023-11-15T06:55:12.830Z,8.2
2023-11-15T06:56:14.972Z,8.3
2023-11-15T06:57:18.774Z,8.3
2023-11-15T06:58:24.566Z,8.4
2023-11-15T06:59:30.736Z,8.5
2023-11-15T07:00:33.763Z,8.5
2023-11-15T07:01:37.649Z,8.5
2023-11-15T07:02:40.801Z,8.5
2023-11-15T07:03:42.761Z,8.5
2023-11-15T07:04:45.667Z,8.5
2023-11-15T07:05:49.591Z,8.6
2023-11-15T07:06:51.874Z,8.7
2023-11-15T07:07:55.678Z,8.7
2023-11-15T07:08:57.878Z,8.6
2023-11-15T07:09:58.784Z,8.6
2023-11-15T07:11:00.674Z,8.6
2023-11-15T07:12:05.479Z,8.6
2023-11-15T07:13:07.746Z,8.6
2023-11-15T07:14:11.708Z,8.6
2023-11-15T07:15:12.681Z,8.6
2023-11-15T07:16:16.218Z,8.5
2023-11-15T07:17:19.802Z,8.5
2023-11-15T07:18:20.834Z,8.5
2023-11-15T07:19:23.041Z,8.4
2023-11-15T07:20:28.873Z,8.5
2023-11-15T07:21:32.512Z,8.5
2023-11-15T07:22:36.308Z,8.5
2023-11-15T07:23:37.744Z,8.6
2023-11-15T07:24:42.253Z,8.7
2023-11-15T07:25:44.718Z,8.8
2023-11-15T07:26:46.791Z,8.8
2023-11-15T07:27:51.346Z,8.9
2023-11-15T07:28:52.984Z,8.8
2023-11-15T07:29:56.756Z,8.8
2023-11-15T07:30:57.787Z,8.9
2023-11-15T07:31:58.702Z,8.8
2023-11-15T07:33:02.791Z,8.9
2023-11-15T07:34:06.699Z,8.9
2023-11-15T07:35:10.777Z,9
2023-11-15T07:36:15.868Z,9
2023-11-15T07:37:17.772Z,9.1
2023-11-15T07:38:21.342Z,9.1
2023-11-15T07:39:22.738Z,9.1
2023-11-15T07:40:24.775Z,9.1
2023-11-15T07:41:30.389Z,9
2023-11-15T07:42:38.267Z,9.1
2023-11-15T07:43:39.722Z,9
2023-11-15T07:44:40.683Z,9.1
2023-11-15T07:45:44.465Z,9
2023-11-15T07:46:45.720Z,9
2023-11-15T07:47:47.048Z,9
2023-11-15T07:48:50.862Z,9.1
2023-11-15T07:49:51.955Z,9.1
2023-11-15T07:50:56.875Z,9.1
2023-11-15T07:52:02.485Z,9.1
2023-11-15T07:53:07.592Z,9.1
2023-11-15T07:54:13.376Z,9.1
2023-11-15T07:55:20.835Z,9.1
2023-11-15T07:56:24.233Z,9.3
2023-11-15T07:57:28.323Z,9.3
2023-11-15T07:58:37.866Z,9.3
2023-11-15T07:59:39.069Z,9.3
2023-11-15T08:00:41.085Z,9.3
2023-11-15T08:01:47.045Z,9.3
2023-11-15T08:02:46.829Z,9.3
2023-11-15T08:03:50.821Z,9.4
2023-11-15T08:04:52.727Z,9.4
2023-11-15T08:05:57.114Z,9.5
2023-11-15T08:06:59.977Z,9.5
2023-11-15T08:08:00.860Z,9.5
2023-11-15T08:09:01.775Z,9.6
2023-11-15T08:10:05.547Z,9.6
2023-11-15T08:11:07.821Z,9.6
2023-11-15T08:12:14.617Z,9.6
2023-11-15T08:13:19.675Z,9.6
2023-11-15T08:14:24.507Z,9.6
2023-11-15T08:15:26.087Z,9.6
2023-11-15T08:16:28.723Z,9.6
2023-11-15T08:17:31.791Z,9.6
2023-11-15T08:18:34.852Z,9.7
2023-11-15T08:19:36.698Z,9.6
2023-11-15T08:20:42.879Z,9.6
2023-11-15T08:21:44.768Z,9.6
2023-11-15T08:22:45.799Z,9.6
2023-11-15T08:23:46.960Z,9.6
2023-11-15T08:24:51.346Z,9.6
2023-11-15T08:25:52.796Z,9.5
2023-11-15T08:26:55.026Z,9.4
2023-11-15T08:28:58.761Z,9.3
2023-11-15T08:30:00.982Z,9.4
2023-11-15T08:31:06.503Z,9.2
2023-11-15T08:32:07.790Z,9.1
2023-11-15T08:33:13.117Z,9
2023-11-15T08:34:17.338Z,9
2023-11-15T08:35:18.835Z,9
2023-11-15T08:36:19.985Z,9.1
2023-11-15T08:37:20.839Z,9
2023-11-15T08:38:23.833Z,9
2023-11-15T08:39:29.037Z,9
2023-11-15T08:40:30.803Z,8.9
2023-11-15T08:41:33.018Z,9
2023-11-15T08:42:34.809Z,9
2023-11-15T08:43:37.497Z,9
2023-11-15T08:44:39.662Z,9
2023-11-15T08:45:48.844Z,9
2023-11-15T08:46:54.094Z,9.1
2023-11-15T08:47:58.940Z,9.2
2023-11-15T08:49:04.886Z,9.3
2023-11-15T08:50:05.807Z,9.3
2023-11-15T08:51:06.792Z,9.2
2023-11-15T08:52:09.109Z,9.2
2023-11-15T08:53:14.300Z,9.3
2023-11-15T08:54:18.754Z,9.3
2023-11-15T08:55:22.542Z,9.4
2023-11-15T08:56:23.751Z,9.4
2023-11-15T08:57:28.753Z,9.4
2023-11-15T08:58:29.834Z,9.4
2023-11-15T08:59:30.784Z,9.3
2023-11-15T09:00:31.783Z,9.3
2023-11-15T09:01:34.994Z,9.2
2023-11-15T09:02:36.900Z,9.2
2023-11-15T09:03:41.147Z,9.2
2023-11-15T09:04:44.827Z,9.2
2023-11-15T09:05:45.905Z,9.3
2023-11-15T09:06:46.821Z,9.3
2023-11-15T09:07:51.582Z,9.4
2023-11-15T09:08:52.736Z,9.4
2023-11-15T09:09:53.801Z,9.5
2023-11-15T09:10:54.769Z,9.5
2023-11-15T09:11:59.530Z,9.6
2023-11-15T09:13:00.874Z,9.6
2023-11-15T09:14:02.792Z,9.6
2023-11-15T09:15:05.119Z,9.6
2023-11-15T09:16:09.434Z,9.6
2023-11-15T09:17:11.767Z,9.6
2023-11-15T09:18:12.861Z,9.6
2023-11-15T09:19:16.650Z,9.7
2023-11-15T09:20:19.045Z,9.7
2023-11-15T09:21:21.777Z,9.6
2023-11-15T09:22:22.775Z,9.4
2023-11-15T09:23:25.352Z,9.5
2023-11-15T09:24:24.818Z,9.4
2023-11-15T09:25:28.431Z,9.3
2023-11-15T09:26:29.789Z,9.2
2023-11-15T09:27:30.788Z,9.1
2023-11-15T09:28:31.828Z,9
2023-11-15T09:29:36.814Z,9.1
2023-11-15T09:30:37.782Z,9.1
2023-11-15T09:31:39.073Z,9.1
2023-11-15T09:32:41.009Z,9.2
2023-11-15T09:33:45.903Z,9.1
2023-11-15T09:34:49.881Z,9
2023-11-15T09:35:54.645Z,9
2023-11-15T09:36:53.171Z,9.1
2023-11-15T09:37:57.226Z,9
2023-11-15T09:38:57.916Z,8.9
2023-11-15T09:39:58.841Z,8.7
2023-11-15T09:41:02.534Z,8.7
2023-11-15T09:42:04.053Z,8.7
2023-11-15T09:43:05.068Z,8.7
2023-11-15T09:44:12.051Z,8.8
2023-11-15T09:45:12.857Z,8.8
2023-11-15T09:46:15.292Z,8.9
2023-11-15T09:47:16.865Z,9
2023-11-15T09:48:19.156Z,9.1
2023-11-15T09:49:20.948Z,9.2
2023-11-15T09:50:25.798Z,9.4
2023-11-15T09:51:27.820Z,9.4
2023-11-15T09:52:32.584Z,9.5
2023-11-15T09:53:34.498Z,9.6
2023-11-15T09:54:35.317Z,9.7
2023-11-15T09:55:37.145Z,9.7
2023-11-15T09:56:41.876Z,9.8
2023-11-15T09:57:42.818Z,9.7
2023-11-15T09:58:43.844Z,9.6
2023-11-15T09:59:52.634Z,9.4
2023-11-15T10:00:50.103Z,9.3
2023-11-15T10:01:53.003Z,9.3
2023-11-15T10:02:56.899Z,9.2
2023-11-15T10:03:58.903Z,9.2
2023-11-15T10:05:03.593Z,9.2
2023-11-15T10:06:05.312Z,9.3
2023-11-15T10:07:07.316Z,9.3
2023-11-15T10:08:11.539Z,9.4
2023-11-15T10:09:13.836Z,9.5
2023-11-15T10:10:15.853Z,9.5
2023-11-15T10:11:19.586Z,9.5
2023-11-15T10:12:20.822Z,9.5
2023-11-15T10:13:24.466Z,9.4
2023-11-15T10:14:25.856Z,9.3
2023-11-15T10:15:26.887Z,9.3
2023-11-15T10:16:28.078Z,9.2
2023-11-15T10:17:33.533Z,9.2
2023-11-15T10:18:38.779Z,9.2
2023-11-15T10:19:39.788Z,9.1
2023-11-15T10:20:42.147Z,9.2
2023-11-15T10:21:45.824Z,9.2
2023-11-15T10:22:58.208Z,9.2
2023-11-15T10:24:04.496Z,9.2
2023-11-15T10:25:07.433Z,9.2
2023-11-15T10:26:09.900Z,9.2
2023-11-15T10:27:23.184Z,9.3
2023-11-15T10:28:27.784Z,9.2
2023-11-15T10:29:32.931Z,9.3
2023-11-15T10:30:33.820Z,9.3
2023-11-15T10:31:34.763Z,9.3
2023-11-15T10:32:36.164Z,9.4
2023-11-15T10:33:40.522Z,9.3
2023-11-15T10:34:43.077Z,9.2
2023-11-15T10:35:49.106Z,9.1
2023-11-15T10:36:54.049Z,9.1
2023-11-15T10:37:52.882Z,9.1
2023-11-15T10:38:54.856Z,9.1
2023-11-15T10:39:56.011Z,9.1
2023-11-15T10:40:57.920Z,9.1
2023-11-15T10:41:58.880Z,9
2023-11-15T10:43:03.728Z,9
2023-11-15T10:44:05.022Z,9
2023-11-15T10:45:07.050Z,9
2023-11-15T10:46:11.648Z,9
2023-11-15T10:47:17.530Z,9.1
2023-11-15T10:48:18.669Z,9.2
2023-11-15T10:49:20.211Z,9.2
2023-11-15T10:50:21.957Z,9.1
2023-11-15T10:51:25.738Z,9.1
2023-11-15T10:52:26.960Z,9.1
2023-11-15T10:53:32.742Z,9
2023-11-15T10:54:36.846Z,9
2023-11-15T10:55:45.604Z,9
2023-11-15T10:56:56.197Z,9
2023-11-15T10:58:03.297Z,9.1
2023-11-15T10:59:08.133Z,9
2023-11-15T11:00:12.939Z,9.1
2023-11-15T11:01:15.898Z,9.1
2023-11-15T11:02:16.960Z,8.9
2023-11-15T11:03:20.946Z,8.8
2023-11-15T11:04:25.139Z,8.7
2023-11-15T11:05:30.942Z,8.8
2023-11-15T11:06:36.165Z,8.8
2023-11-15T11:07:37.896Z,8.9
2023-11-15T11:08:40.825Z,9
2023-11-15T11:09:42.903Z,9.1
2023-11-15T11:10:47.680Z,9.3
2023-11-15T11:11:50.104Z,9.5
2023-11-15T11:12:50.869Z,9.5
2023-11-15T11:13:52.901Z,9.5
2023-11-15T11:14:54.820Z,9.6
2023-11-15T11:15:56.939Z,9.6
2023-11-15T11:16:59.149Z,9.7
2023-11-15T11:18:02.340Z,9.7
2023-11-15T11:19:06.713Z,9.8
2023-11-15T11:20:09.979Z,9.9
2023-11-15T11:21:12.277Z,9.8
2023-11-15T11:22:21.035Z,9.8
2023-11-15T11:23:23.959Z,9.8
2023-11-15T11:24:24.897Z,9.8
2023-11-15T11:25:29.165Z,9.7
2023-11-15T11:26:32.162Z,9.7
2023-11-15T11:27:33.802Z,9.7
2023-11-15T11:28:34.839Z,9.7
2023-11-15T11:29:36.040Z,9.7
2023-11-15T11:30:37.908Z,9.7
2023-11-15T11:31:38.879Z,9.8
2023-11-15T11:32:43.924Z,9.9
2023-11-15T11:33:46.889Z,9.9
2023-11-15T11:34:50.284Z,10
2023-11-15T11:35:51.882Z,9.9
2023-11-15T11:36:54.160Z,9.8
2023-11-15T11:37:57.899Z,9.8
2023-11-15T11:38:59.900Z,9.8
2023-11-15T11:40:01.857Z,9.8
2023-11-15T11:41:03.024Z,9.8
2023-11-15T11:42:04.889Z,9.7
2023-11-15T11:43:06.097Z,9.7
2023-11-15T11:44:06.951Z,9.8
2023-11-15T11:45:11.684Z,9.7
2023-11-15T11:46:13.085Z,9.7
2023-11-15T11:47:16.917Z,9.6
2023-11-15T11:48:21.463Z,9.6
2023-11-15T11:49:22.809Z,9.7
2023-11-15T11:50:30.588Z,9.6
2023-11-15T11:51:32.861Z,9.7
2023-11-15T11:52:34.853Z,9.7
2023-11-15T11:53:36.899Z,9.7
2023-11-15T11:54:37.859Z,9.8
2023-11-15T11:55:39.795Z,9.8
2023-11-15T11:56:40.839Z,9.8
2023-11-15T11:57:42.850Z,9.9
2023-11-15T11:58:44.030Z,9.8
2023-11-15T11:59:44.848Z,9.8
2023-11-15T12:00:52.582Z,9.8
2023-11-15T12:01:54.196Z,9.7
2023-11-15T12:03:01.197Z,9.7
2023-11-15T12:03:59.914Z,9.7
2023-11-15T12:05:00.867Z,9.7
2023-11-15T12:06:01.880Z,9.6
2023-11-15T12:07:02.828Z,9.6
2023-11-15T12:08:04.899Z,9.4
2023-11-15T12:09:07.044Z,9.4
2023-11-15T12:10:07.842Z,9.4
2023-11-15T12:11:11.774Z,9.3
2023-11-15T12:12:12.942Z,9.3
2023-11-15T12:13:13.808Z,9.2
2023-11-15T12:14:15.176Z,9.2
2023-11-15T12:15:18.064Z,9.3
2023-11-15T12:16:21.227Z,9.2
2023-11-15T12:17:24.960Z,9.3
2023-11-15T12:18:32.171Z,9.3
2023-11-15T12:19:36.977Z,9.4
2023-11-15T12:20:37.856Z,9.4
2023-11-15T12:21:42.141Z,9.3
2023-11-15T12:22:43.884Z,9.3
2023-11-15T12:23:44.863Z,9.3
2023-11-15T12:24:47.928Z,9.4
2023-11-15T12:25:49.982Z,9.4
2023-11-15T12:26:52.638Z,9.5
2023-11-15T12:27:55.091Z,9.5
2023-11-15T12:28:56.824Z,9.5
2023-11-15T12:29:57.845Z,9.5
2023-11-15T12:30:59.952Z,9.6
2023-11-15T12:32:02.978Z,9.8
2023-11-15T12:33:04.035Z,10
2023-11-15T12:34:05.880Z,10.2
2023-11-15T12:35:07.020Z,10.4
2023-11-15T12:36:07.976Z,10.7
2023-11-15T12:37:10.124Z,10.9
2023-11-15T12:38:12.038Z,11
2023-11-15T12:39:13.862Z,11.2
2023-11-15T12:40:17.195Z,11.2
2023-11-15T12:41:18.990Z,11.1
2023-11-15T12:42:20.936Z,11
2023-11-15T12:43:24.073Z,10.9
2023-11-15T12:44:25.899Z,10.9
2023-11-15T12:45:26.911Z,10.8
2023-11-15T12:46:28.938Z,10.7
2023-11-15T12:47:36.970Z,10.5
2023-11-15T12:48:41.641Z,10.4
2023-11-15T12:49:42.869Z,10.3
2023-11-15T12:50:44.341Z,10.2
2023-11-15T12:51:48.586Z,10.1
2023-11-15T12:52:53.130Z,10
2023-11-15T12:53:53.426Z,9.9
2023-11-15T12:54:57.826Z,9.8
2023-11-15T12:56:00.079Z,9.7
2023-11-15T12:57:04.977Z,9.6
2023-11-15T12:58:06.860Z,9.7
2023-11-15T12:59:08.937Z,9.8
2023-11-15T13:00:09.935Z,9.8
2023-11-15T13:01:10.902Z,9.8
2023-11-15T13:02:16.119Z,9.8
2023-11-15T13:03:18.076Z,9.8
2023-11-15T13:04:22.341Z,9.8
2023-11-15T13:05:26.852Z,9.8
2023-11-15T13:06:30.224Z,9.8
2023-11-15T13:07:30.905Z,9.7
2023-11-15T13:08:33.936Z,9.6
2023-11-15T13:09:42.725Z,9.5
2023-11-15T13:10:44.954Z,9.6
2023-11-15T13:11:47.960Z,9.4
2023-11-15T13:12:51.425Z,9.4
2023-11-15T13:13:59.669Z,9.5
2023-11-15T13:15:05.923Z,9.5
2023-11-15T13:16:10.765Z,9.6
2023-11-15T13:17:14.432Z,9.6
2023-11-15T13:18:16.934Z,9.6
2023-11-15T13:19:17.912Z,9.6
2023-11-15T13:20:19.010Z,9.5
2023-11-15T13:21:21.184Z,9.6
2023-11-15T13:22:22.873Z,9.6
2023-11-15T13:23:24.853Z,9.6
2023-11-15T13:24:27.367Z,9.6
2023-11-15T13:25:30.207Z,9.6
2023-11-15T13:26:30.889Z,9.7
2023-11-15T13:27:31.953Z,9.7
2023-11-15T13:28:35.151Z,9.5
2023-11-15T13:29:36.845Z,9.5
2023-11-15T13:30:38.198Z,9.5
2023-11-15T13:31:39.842Z,9.5
2023-11-15T13:32:44.087Z,9.6
2023-11-15T13:33:44.935Z,9.7
2023-11-15T13:34:49.618Z,9.5
2023-11-15T13:35:51.861Z,9.4
2023-11-15T13:36:55.021Z,9.4
2023-11-15T13:37:55.903Z,9.4
2023-11-15T13:38:58.071Z,9.4
2023-11-15T13:39:59.872Z,9.3
2023-11-15T13:41:02.972Z,9.2
2023-11-15T13:42:04.920Z,9.3
2023-11-15T13:43:05.952Z,9.2
2023-11-15T13:44:07.877Z,9.3
2023-11-15T13:45:09.330Z,9.4
2023-11-15T13:46:12.150Z,9.5
2023-11-15T13:47:12.905Z,9.4
2023-11-15T13:48:18.391Z,9.4
2023-11-15T13:49:19.385Z,9.5
2023-11-15T13:50:21.351Z,9.4
2023-11-15T13:51:23.395Z,9.4
2023-11-15T13:52:24.911Z,9.2
2023-11-15T13:53:25.868Z,9.1
2023-11-15T13:54:28.120Z,9.1
2023-11-15T13:55:29.914Z,9.2
2023-11-15T13:56:31.884Z,9.2
2023-11-15T13:57:32.913Z,9.2
2023-11-15T13:58:33.916Z,9.2
2023-11-15T13:59:34.907Z,9.1
2023-11-15T14:00:36.925Z,9.2
2023-11-15T14:01:37.963Z,9.1
2023-11-15T14:02:42.033Z,9.1
2023-11-15T14:03:49.832Z,9.1
2023-11-15T14:04:50.901Z,9.2
2023-11-15T14:05:54.117Z,9.3
2023-11-15T14:06:58.077Z,9.3
2023-11-15T14:08:04.826Z,9.4
2023-11-15T14:09:08.568Z,9.4
2023-11-15T14:10:13.957Z,9.4
2023-11-15T14:11:16.165Z,9.5
2023-11-15T14:12:18.069Z,9.5
2023-11-15T14:13:19.171Z,9.4
2023-11-15T14:14:21.923Z,9.3
2023-11-15T14:15:25.100Z,9.3
2023-11-15T14:16:28.095Z,9.4
2023-11-15T14:17:32.183Z,9.4
2023-11-15T14:18:35.647Z,9.4
2023-11-15T14:19:36.904Z,9.4
2023-11-15T14:20:38.900Z,9.4
2023-11-15T14:21:39.932Z,9.4
2023-11-15T14:22:41.449Z,9.4
2023-11-15T14:23:43.925Z,9.4
2023-11-15T14:24:46.039Z,9.4
2023-11-15T14:25:49.122Z,9.4
2023-11-15T14:26:51.028Z,9.3
2023-11-15T14:27:57.341Z,9.3
2023-11-15T14:28:57.985Z,9.2
2023-11-15T14:30:02.713Z,9.2
2023-11-15T14:31:06.920Z,9.2
2023-11-15T14:32:07.976Z,9.2
2023-11-15T14:33:11.147Z,9.1
2023-11-15T14:34:11.923Z,9.2
2023-11-15T14:35:13.924Z,9.2
2023-11-15T14:36:16.245Z,9.3
2023-11-15T14:37:20.853Z,9.3
2023-11-15T14:38:24.945Z,9.4